Time;durP1;ratioP1;P1;durP2;ratioP2;P2;SDS_P1;SDS_P2;PMS_P1;PMS_P2;Temp;Humidity;BMP_temperature;BMP_pressure;BME280_temperature;BME280_humidity;BME280_pressure;Samples;Min_cycle;Max_cycle;Signal;HPM_P1;HPM_P2
2022/01/31 00:00:10;;;;;;;36.07;8.90;;;2.60;99.90;;;;;;5051811;28;20205;-54
2022/01/31 00:02:38;;;;;;;34.30;9.53;;;2.60;99.90;;;;;;5052384;28;20254;-54
2022/01/31 00:05:09;;;;;;;37.47;9.30;;;2.60;99.90;;;;;;5051972;28;20240;-54
2022/01/31 00:07:37;;;;;;;35.43;10.60;;;2.60;99.90;;;;;;5052071;28;20742;-54
2022/01/31 00:10:09;;;;;;;29.77;8.90;;;2.60;99.90;;;;;;5051520;28;20698;-54
2022/01/31 00:12:48;;;;;;;29.17;8.60;;;2.60;99.90;;;;;;5051897;28;20631;-54
2022/01/31 00:15:17;;;;;;;31.37;8.90;;;2.60;99.90;;;;;;5051448;28;20209;-54
2022/01/31 00:17:45;;;;;;;33.53;9.53;;;2.60;99.90;;;;;;5051948;28;20205;-53
2022/01/31 00:20:14;;;;;;;36.20;8.80;;;2.70;99.90;;;;;;5051888;28;20202;-54
2022/01/31 00:22:42;;;;;;;32.37;8.43;;;2.60;99.90;;;;;;5051876;28;20331;-54
2022/01/31 00:25:10;;;;;;;33.87;9.07;;;2.70;99.90;;;;;;5051748;28;20709;-54
2022/01/31 00:27:38;;;;;;;33.60;9.10;;;2.70;99.90;;;;;;5051496;28;20264;-54
2022/01/31 00:30:08;;;;;;;31.43;8.13;;;2.70;99.90;;;;;;5031513;28;20245;-54
2022/01/31 00:32:36;;;;;;;28.17;8.77;;;2.70;99.90;;;;;;5050709;28;20778;-54
2022/01/31 00:35:06;;;;;;;33.80;7.73;;;2.70;99.90;;;;;;5051631;28;20304;-54
2022/01/31 00:37:35;;;;;;;34.07;8.33;;;2.70;99.90;;;;;;5051194;28;20852;-54
2022/01/31 00:40:05;;;;;;;31.60;9.23;;;2.70;99.90;;;;;;5051687;28;20263;-53
2022/01/31 00:42:34;;;;;;;25.13;7.43;;;2.60;99.90;;;;;;5050959;28;20257;-54
2022/01/31 00:45:11;;;;;;;32.20;8.53;;;2.60;99.90;;;;;;5051067;28;20720;-54
2022/01/31 00:47:43;;;;;;;26.67;8.93;;;2.60;99.90;;;;;;5051471;28;20803;-54
2022/01/31 00:50:13;;;;;;;29.97;8.53;;;2.60;99.90;;;;;;5051344;28;20231;-55
2022/01/31 00:52:44;;;;;;;28.93;8.03;;;2.60;99.90;;;;;;5050717;28;20265;-54
2022/01/31 00:55:14;;;;;;;28.67;8.30;;;2.60;99.90;;;;;;5050960;28;20209;-54
2022/01/31 00:57:42;;;;;;;31.10;8.10;;;2.50;99.90;;;;;;5050869;28;20199;-54
2022/01/31 01:00:13;;;;;;;24.43;7.70;;;2.50;99.90;;;;;;5050290;28;20877;-54
2022/01/31 01:02:41;;;;;;;23.13;7.53;;;2.60;99.90;;;;;;5050261;28;20287;-54
2022/01/31 01:05:10;;;;;;;26.30;8.13;;;2.60;99.90;;;;;;5051018;28;20213;-55
2022/01/31 01:07:38;;;;;;;32.17;8.40;;;2.50;99.90;;;;;;5050281;28;20253;-54
2022/01/31 01:10:08;;;;;;;29.37;8.63;;;2.50;99.90;;;;;;5050523;28;20230;-54
2022/01/31 01:12:37;;;;;;;27.37;8.80;;;2.50;99.90;;;;;;5050065;28;20777;-55
2022/01/31 01:15:05;;;;;;;25.33;8.30;;;2.50;99.90;;;;;;5050691;28;20213;-54
2022/01/31 01:17:35;;;;;;;25.23;7.70;;;2.50;99.90;;;;;;5050848;28;20259;-55
2022/01/31 01:20:04;;;;;;;26.33;8.57;;;2.50;99.90;;;;;;5051119;28;20209;-54
2022/01/31 01:22:32;;;;;;;25.47;8.60;;;2.50;99.90;;;;;;5051115;28;20221;-54
2022/01/31 01:25:04;;;;;;;31.50;8.87;;;2.50;99.90;;;;;;5050300;28;20216;-54
2022/01/31 01:27:33;;;;;;;30.13;8.80;;;2.50;99.90;;;;;;5050666;28;20718;-54
2022/01/31 01:30:03;;;;;;;27.40;7.70;;;2.40;99.90;;;;;;5050515;28;20209;-54
2022/01/31 01:32:38;;;;;;;24.47;8.30;;;2.40;99.90;;;;;;5051034;28;20221;-55
2022/01/31 01:35:07;;;;;;;28.77;8.40;;;2.40;99.90;;;;;;5050406;28;20553;-54
2022/01/31 01:37:36;;;;;;;30.77;8.73;;;2.50;99.90;;;;;;5050823;28;20293;-53
2022/01/31 01:40:06;;;;;;;25.93;8.50;;;2.50;99.90;;;;;;5050629;28;20205;-54
2022/01/31 01:42:36;;;;;;;30.97;8.43;;;2.50;99.90;;;;;;5050268;28;20262;-55
2022/01/31 01:45:04;;;;;;;31.70;8.33;;;2.60;99.90;;;;;;5050868;28;20210;-54
2022/01/31 01:47:32;;;;;;;24.73;7.90;;;2.60;99.90;;;;;;5050543;28;20225;-55
2022/01/31 01:50:00;;;;;;;32.30;8.93;;;2.60;99.90;;;;;;5050473;28;20279;-55
2022/01/31 01:52:29;;;;;;;28.93;8.27;;;2.50;99.90;;;;;;5050331;28;20222;-54
2022/01/31 01:54:57;;;;;;;31.60;8.50;;;2.50;99.90;;;;;;5050347;28;20208;-55
2022/01/31 01:57:27;;;;;;;28.07;8.47;;;2.60;99.90;;;;;;5050543;28;20385;-55
2022/01/31 01:59:57;;;;;;;25.17;8.90;;;2.60;99.90;;;;;;5050408;28;20258;-54
2022/01/31 02:02:25;;;;;;;24.17;8.03;;;2.60;99.90;;;;;;5050501;28;20225;-54
2022/01/31 02:04:53;;;;;;;31.47;8.73;;;2.60;99.90;;;;;;5050233;28;20267;-55
2022/01/31 02:07:21;;;;;;;28.10;8.00;;;2.60;99.90;;;;;;5050697;28;20234;-54
2022/01/31 02:09:54;;;;;;;21.30;7.87;;;2.70;99.90;;;;;;5050064;28;20778;-54
2022/01/31 02:12:23;;;;;;;21.30;7.57;;;2.60;99.90;;;;;;5049647;28;20225;-54
2022/01/31 02:14:51;;;;;;;25.77;7.37;;;2.60;99.90;;;;;;5049991;28;20217;-55
2022/01/31 02:17:21;;;;;;;25.80;7.20;;;2.60;99.90;;;;;;5050787;28;20245;-55
2022/01/31 02:19:49;;;;;;;24.50;7.93;;;2.60;99.90;;;;;;5053140;28;20237;-54
2022/01/31 02:22:18;;;;;;;19.27;6.87;;;2.60;99.90;;;;;;5053669;28;20237;-54
2022/01/31 02:24:46;;;;;;;25.00;7.20;;;2.60;99.90;;;;;;5053741;28;20206;-54
2022/01/31 02:27:15;;;;;;;19.03;6.73;;;2.70;99.90;;;;;;5053580;28;20239;-54
2022/01/31 02:29:43;;;;;;;27.60;7.13;;;2.70;99.90;;;;;;5053581;28;20256;-54
2022/01/31 02:32:12;;;;;;;18.30;6.87;;;2.70;99.90;;;;;;5053899;28;20259;-54
2022/01/31 02:34:40;;;;;;;22.33;6.90;;;2.70;99.90;;;;;;5053773;28;20263;-54
2022/01/31 02:37:10;;;;;;;26.00;7.27;;;2.60;99.90;;;;;;5053876;28;20202;-54
2022/01/31 02:39:39;;;;;;;18.97;6.33;;;2.70;99.90;;;;;;5053435;28;20202;-55
2022/01/31 02:42:08;;;;;;;19.83;6.80;;;2.60;99.90;;;;;;5053397;28;20197;-54
2022/01/31 02:44:41;;;;;;;22.03;6.70;;;2.60;99.90;;;;;;5053178;28;20259;-54
2022/01/31 02:47:13;;;;;;;18.77;6.50;;;2.60;99.90;;;;;;5034943;28;20214;-54
2022/01/31 02:49:48;;;;;;;19.60;6.33;;;2.50;99.90;;;;;;5039193;28;20221;-54
2022/01/31 02:52:18;;;;;;;21.60;5.90;;;2.50;99.90;;;;;;5053021;28;20252;-54
2022/01/31 02:54:47;;;;;;;16.13;6.00;;;2.50;99.90;;;;;;5053211;28;20252;-54
2022/01/31 02:57:16;;;;;;;20.30;6.57;;;2.50;99.90;;;;;;5053473;28;20255;-54
2022/01/31 02:59:44;;;;;;;19.97;5.80;;;2.50;99.90;;;;;;5050059;28;20262;-54
2022/01/31 03:02:12;;;;;;;18.87;6.67;;;2.50;99.90;;;;;;5053029;28;20750;-54
2022/01/31 03:04:40;;;;;;;17.43;6.67;;;2.60;99.90;;;;;;5053360;28;20288;-54
2022/01/31 03:07:08;;;;;;;25.27;7.03;;;2.60;99.90;;;;;;5053204;28;20233;-54
2022/01/31 03:09:36;;;;;;;24.13;5.87;;;2.60;99.90;;;;;;5053057;28;20264;-54
2022/01/31 03:12:08;;;;;;;21.50;6.27;;;2.60;99.90;;;;;;5053008;28;20201;-54
2022/01/31 03:14:36;;;;;;;25.13;6.43;;;2.50;99.90;;;;;;5052855;28;20279;-53
2022/01/31 03:17:06;;;;;;;20.67;6.13;;;2.60;99.90;;;;;;5052805;28;20668;-54
2022/01/31 03:19:37;;;;;;;21.23;6.20;;;2.60;99.90;;;;;;5052918;28;20271;-54
2022/01/31 03:22:07;;;;;;;23.93;7.43;;;2.60;99.90;;;;;;5052722;28;20208;-54
2022/01/31 03:24:35;;;;;;;20.23;6.23;;;2.60;99.90;;;;;;5052577;28;20246;-54
2022/01/31 03:27:05;;;;;;;21.33;6.07;;;2.60;99.90;;;;;;5052777;28;20201;-54
2022/01/31 03:29:34;;;;;;;18.33;5.73;;;2.60;99.90;;;;;;5052340;28;20208;-54
2022/01/31 03:32:02;;;;;;;18.67;6.63;;;2.60;99.90;;;;;;5052968;28;20210;-54
2022/01/31 03:34:30;;;;;;;20.77;6.77;;;2.50;99.90;;;;;;5052508;28;20205;-54
2022/01/31 03:36:59;;;;;;;16.60;6.27;;;2.50;99.90;;;;;;5052531;28;20252;-53
2022/01/31 03:39:27;;;;;;;19.87;6.97;;;2.60;99.90;;;;;;5052806;28;20248;-54
2022/01/31 03:41:55;;;;;;;16.30;6.17;;;2.60;99.90;;;;;;5051826;28;20204;-54
2022/01/31 03:44:24;;;;;;;17.60;6.07;;;2.60;99.90;;;;;;5051940;28;20673;-54
2022/01/31 03:46:53;;;;;;;14.70;5.53;;;2.60;99.90;;;;;;5052235;28;20217;-54
2022/01/31 03:49:21;;;;;;;13.63;6.27;;;2.70;99.90;;;;;;5052663;28;20271;-54
2022/01/31 03:51:49;;;;;;;22.80;6.20;;;2.60;99.90;;;;;;5051790;28;20231;-54
2022/01/31 03:54:18;;;;;;;18.07;5.37;;;2.70;99.90;;;;;;5052148;28;20225;-54
2022/01/31 03:56:46;;;;;;;17.47;6.20;;;2.70;99.90;;;;;;5052060;28;20233;-54
2022/01/31 03:59:14;;;;;;;17.67;5.80;;;2.70;99.90;;;;;;5045958;28;20249;-54
2022/01/31 04:01:43;;;;;;;13.97;5.27;;;2.70;99.90;;;;;;5032263;28;20667;-53
2022/01/31 04:04:13;;;;;;;15.07;5.73;;;2.70;99.90;;;;;;5032424;28;20230;-54
2022/01/31 04:06:42;;;;;;;20.60;5.80;;;2.70;99.90;;;;;;5032193;28;20214;-54
2022/01/31 04:09:10;;;;;;;16.97;5.70;;;2.70;99.90;;;;;;5031617;28;20261;-54
2022/01/31 04:11:39;;;;;;;16.20;5.63;;;2.70;99.90;;;;;;5032184;28;20737;-53
2022/01/31 04:14:08;;;;;;;17.23;6.07;;;2.70;99.90;;;;;;5031739;28;20229;-53
2022/01/31 04:16:36;;;;;;;19.87;6.03;;;2.70;99.90;;;;;;5031648;28;20238;-54
2022/01/31 04:19:05;;;;;;;18.50;5.87;;;2.70;99.90;;;;;;5052087;28;20260;-53
2022/01/31 04:21:33;;;;;;;13.97;5.77;;;2.70;99.90;;;;;;5051601;28;20255;-54
2022/01/31 04:24:02;;;;;;;20.30;6.97;;;2.70;99.90;;;;;;5051679;28;20247;-54
2022/01/31 04:26:33;;;;;;;19.93;6.63;;;2.70;99.90;;;;;;5051651;28;20205;-54
2022/01/31 04:29:07;;;;;;;21.47;6.60;;;2.60;99.90;;;;;;5051322;28;20233;-54
2022/01/31 04:31:39;;;;;;;20.73;6.70;;;2.60;99.90;;;;;;5051721;28;20247;-54
2022/01/31 04:34:10;;;;;;;22.57;6.53;;;2.70;99.90;;;;;;5051433;28;20255;-53
2022/01/31 04:36:38;;;;;;;24.50;6.83;;;2.60;99.90;;;;;;5051796;28;20194;-54
2022/01/31 04:39:06;;;;;;;20.40;6.93;;;2.60;99.90;;;;;;5050908;28;20240;-54
2022/01/31 04:41:34;;;;;;;16.97;6.60;;;2.70;99.90;;;;;;5051082;28;20241;-54
2022/01/31 04:44:06;;;;;;;18.50;6.47;;;2.60;99.90;;;;;;5050683;28;20286;-55
2022/01/31 04:46:34;;;;;;;21.50;7.00;;;2.70;99.90;;;;;;5051494;28;20218;-54
2022/01/31 04:49:03;;;;;;;20.50;7.33;;;2.60;99.90;;;;;;5051408;28;20288;-54
2022/01/31 04:51:32;;;;;;;19.27;7.30;;;2.70;99.90;;;;;;5051308;28;20258;-55
2022/01/31 04:54:00;;;;;;;25.23;8.37;;;2.60;99.90;;;;;;5050715;28;20231;-55
2022/01/31 04:56:28;;;;;;;17.60;7.30;;;2.60;99.90;;;;;;5051195;28;20259;-54
2022/01/31 04:58:56;;;;;;;22.07;7.70;;;2.60;99.90;;;;;;5047309;28;20263;-54
2022/01/31 05:01:25;;;;;;;22.27;7.17;;;2.60;99.90;;;;;;5030918;28;20232;-54
2022/01/31 05:03:53;;;;;;;18.20;7.23;;;2.60;99.90;;;;;;5030740;28;20229;-54
2022/01/31 05:06:28;;;;;;;19.23;7.57;;;2.60;99.90;;;;;;5038017;28;20201;-55
2022/01/31 05:08:57;;;;;;;15.17;7.40;;;2.60;99.90;;;;;;5050884;28;20246;-54
2022/01/31 05:11:26;;;;;;;13.77;7.37;;;2.50;99.90;;;;;;5050772;28;20221;-54
2022/01/31 05:13:54;;;;;;;15.07;6.73;;;2.50;99.90;;;;;;5050645;28;20275;-54
2022/01/31 05:16:22;;;;;;;14.87;6.57;;;2.60;99.90;;;;;;5050882;28;20279;-54
2022/01/31 05:18:50;;;;;;;11.07;6.57;;;2.60;99.90;;;;;;5050777;28;20198;-54
2022/01/31 05:21:18;;;;;;;10.90;6.30;;;2.60;99.90;;;;;;5050849;28;20225;-54
2022/01/31 05:23:49;;;;;;;14.57;6.33;;;2.60;99.90;;;;;;5050441;28;20933;-53
2022/01/31 05:26:19;;;;;;;14.57;6.20;;;2.60;99.90;;;;;;5051059;28;20197;-54
2022/01/31 05:28:47;;;;;;;10.73;5.87;;;2.60;99.90;;;;;;5050713;28;20718;-54
2022/01/31 05:31:15;;;;;;;10.37;5.70;;;2.60;99.90;;;;;;5050406;28;20259;-54
2022/01/31 05:33:43;;;;;;;15.13;6.37;;;2.60;99.90;;;;;;5050647;28;20234;-54
2022/01/31 05:36:12;;;;;;;10.37;5.57;;;2.60;99.90;;;;;;5050720;28;20249;-53
2022/01/31 05:38:40;;;;;;;11.47;5.63;;;2.60;99.90;;;;;;5050876;28;20631;-54
2022/01/31 05:41:11;;;;;;;12.10;5.80;;;2.60;99.90;;;;;;5050639;28;20248;-54
2022/01/31 05:43:40;;;;;;;10.13;5.97;;;2.60;99.90;;;;;;5050546;28;20227;-54
2022/01/31 05:46:09;;;;;;;8.87;5.97;;;2.60;99.90;;;;;;5050310;28;20986;-55
2022/01/31 05:48:37;;;;;;;12.13;6.63;;;2.70;99.90;;;;;;5050849;28;20212;-53
2022/01/31 05:51:11;;;;;;;86.47;51.70;;;2.70;99.90;;;;;;5050350;28;20252;-54
2022/01/31 05:53:39;;;;;;;13.83;6.70;;;2.70;99.90;;;;;;5052914;28;20229;-54
2022/01/31 05:56:07;;;;;;;9.07;5.70;;;2.70;99.90;;;;;;5054474;28;20675;-54
2022/01/31 05:58:37;;;;;;;9.17;5.37;;;2.70;99.90;;;;;;5054381;28;20814;-54
2022/01/31 06:01:06;;;;;;;8.40;5.40;;;2.60;99.90;;;;;;5054568;28;20252;-55
2022/01/31 06:03:35;;;;;;;6.77;5.37;;;2.70;99.90;;;;;;5054191;28;20277;-54
2022/01/31 06:06:03;;;;;;;8.47;5.50;;;2.70;99.90;;;;;;5053969;28;20206;-55
2022/01/31 06:08:32;;;;;;;6.00;5.00;;;2.80;99.90;;;;;;5054378;28;20213;-54
2022/01/31 06:11:00;;;;;;;9.20;5.40;;;2.70;99.90;;;;;;5054169;28;20225;-53
2022/01/31 06:13:31;;;;;;;9.97;4.93;;;2.70;99.90;;;;;;5053810;28;20734;-55
2022/01/31 06:16:00;;;;;;;7.80;5.30;;;2.80;99.90;;;;;;5053723;28;20256;-55
2022/01/31 06:18:29;;;;;;;7.23;5.50;;;2.80;99.90;;;;;;5054119;28;20209;-54
2022/01/31 06:20:57;;;;;;;11.17;5.60;;;2.80;99.90;;;;;;5053633;28;20217;-54
2022/01/31 06:23:25;;;;;;;9.10;5.50;;;2.90;99.90;;;;;;5054148;28;20238;-54
2022/01/31 06:25:53;;;;;;;8.33;5.23;;;2.90;99.90;;;;;;5053829;28;20888;-54
2022/01/31 06:28:23;;;;;;;6.83;4.97;;;2.90;99.90;;;;;;5053684;28;20200;-54
2022/01/31 06:30:51;;;;;;;8.53;4.80;;;2.90;99.90;;;;;;5049558;28;20285;-54
2022/01/31 06:33:20;;;;;;;7.93;5.50;;;2.90;99.90;;;;;;5040273;28;20240;-54
2022/01/31 06:35:49;;;;;;;6.50;4.83;;;2.90;99.90;;;;;;5053455;28;20275;-54
2022/01/31 06:38:18;;;;;;;7.87;5.17;;;3.00;99.90;;;;;;5053286;28;20201;-56
2022/01/31 06:40:46;;;;;;;9.97;5.80;;;2.90;99.90;;;;;;5035931;28;20206;-55
2022/01/31 06:43:14;;;;;;;8.87;5.03;;;2.80;99.90;;;;;;5053244;28;20225;-55
2022/01/31 06:45:42;;;;;;;7.70;4.67;;;2.80;99.90;;;;;;5052926;28;20204;-54
2022/01/31 06:48:10;;;;;;;5.03;4.10;;;2.90;99.90;;;;;;5053502;28;20260;-54
2022/01/31 06:50:38;;;;;;;5.67;4.03;;;3.00;99.90;;;;;;5052927;28;20259;-55
2022/01/31 06:53:08;;;;;;;5.83;4.40;;;3.10;99.90;;;;;;5052763;28;20226;-54
2022/01/31 06:55:37;;;;;;;5.67;3.83;;;3.00;99.90;;;;;;5053081;28;20241;-55
2022/01/31 06:58:05;;;;;;;6.47;4.30;;;3.00;99.90;;;;;;5052931;28;20201;-54
2022/01/31 07:00:33;;;;;;;6.53;4.37;;;3.00;99.90;;;;;;5047399;28;20847;-55
2022/01/31 07:03:03;;;;;;;4.77;4.17;;;3.00;99.90;;;;;;5052963;28;20283;-55
2022/01/31 07:05:31;;;;;;;6.13;4.30;;;2.90;99.90;;;;;;5052263;28;20747;-55
2022/01/31 07:07:59;;;;;;;5.40;4.10;;;3.00;99.90;;;;;;5053056;28;20222;-55
2022/01/31 07:10:29;;;;;;;7.13;4.70;;;3.00;99.90;;;;;;5052958;28;20264;-55
2022/01/31 07:12:58;;;;;;;3.73;3.40;;;3.00;99.90;;;;;;5052266;28;20226;-55
2022/01/31 07:15:26;;;;;;;5.43;3.70;;;3.10;99.90;;;;;;5052623;28;20244;-55
2022/01/31 07:17:55;;;;;;;5.60;3.33;;;3.00;99.90;;;;;;5052985;28;20259;-54
2022/01/31 07:20:34;;;;;;;4.97;4.10;;;3.00;99.90;;;;;;5052881;28;20205;-54
2022/01/31 07:23:11;;;;;;;5.73;4.40;;;3.00;99.90;;;;;;5052939;28;20231;-53
2022/01/31 07:25:40;;;;;;;6.93;4.50;;;3.10;99.90;;;;;;5052818;28;20210;-56
2022/01/31 07:28:09;;;;;;;7.23;4.43;;;3.20;99.90;;;;;;5052961;28;20260;-54
2022/01/31 07:30:39;;;;;;;5.67;4.43;;;3.30;99.90;;;;;;5052476;28;20232;-55
2022/01/31 07:33:10;;;;;;;5.67;5.07;;;3.30;99.90;;;;;;5052333;28;20775;-55
2022/01/31 07:35:38;;;;;;;5.30;4.70;;;3.40;99.90;;;;;;5052383;28;20201;-55
2022/01/31 07:38:07;;;;;;;4.17;3.77;;;3.30;99.90;;;;;;5051883;28;20237;-55
2022/01/31 07:40:35;;;;;;;5.20;4.67;;;3.40;99.90;;;;;;5052651;28;20263;-55
2022/01/31 07:43:05;;;;;;;5.73;4.27;;;3.30;99.90;;;;;;5052174;28;20266;-55
2022/01/31 07:45:33;;;;;;;7.03;4.80;;;3.30;99.90;;;;;;5052611;28;20259;-55
2022/01/31 07:48:02;;;;;;;4.23;3.80;;;3.30;99.90;;;;;;5052198;28;20245;-56
2022/01/31 07:50:32;;;;;;;5.70;4.17;;;3.30;99.90;;;;;;5051788;28;20233;-55
2022/01/31 07:53:01;;;;;;;4.93;4.43;;;3.30;99.90;;;;;;5052056;28;20230;-54
2022/01/31 07:55:29;;;;;;;6.87;5.33;;;3.30;99.90;;;;;;5051949;28;20203;-54
2022/01/31 07:57:58;;;;;;;8.67;6.67;;;3.30;99.90;;;;;;5052285;28;20234;-53
2022/01/31 08:00:45;;;;;;;8.70;5.33;;;3.30;99.90;;;;;;5052095;28;20742;-55
2022/01/31 08:03:14;;;;;;;5.20;4.33;;;3.40;99.90;;;;;;5051880;28;20710;-54
2022/01/31 08:05:43;;;;;;;6.67;4.70;;;3.40;99.90;;;;;;5051685;28;20214;-54
2022/01/31 08:08:11;;;;;;;6.87;4.23;;;3.40;99.90;;;;;;5051916;28;20254;-55
2022/01/31 08:10:39;;;;;;;5.40;4.60;;;3.40;99.90;;;;;;5052193;28;20218;-55
2022/01/31 08:13:08;;;;;;;5.40;4.43;;;3.40;99.90;;;;;;5051747;28;20229;-55
2022/01/31 08:15:46;;;;;;;6.47;3.97;;;3.40;99.90;;;;;;5040007;28;20234;-55
2022/01/31 08:18:16;;;;;;;7.27;3.50;;;3.30;99.90;;;;;;5031678;28;20199;-54
2022/01/31 08:20:45;;;;;;;6.70;3.50;;;3.30;99.90;;;;;;5035558;28;20225;-55
2022/01/31 08:23:13;;;;;;;6.17;4.70;;;3.40;99.90;;;;;;5051431;28;20232;-55
2022/01/31 08:25:47;;;;;;;7.53;6.13;;;3.40;99.90;;;;;;5051602;28;20670;-54
2022/01/31 08:28:15;;;;;;;7.27;5.37;;;3.40;99.90;;;;;;5051621;28;20264;-54
2022/01/31 08:30:50;;;;;;;8.97;6.93;;;3.50;99.90;;;;;;5051629;28;20241;-54
2022/01/31 08:33:33;;;;;;;38.60;29.10;;;3.50;99.90;;;;;;5051569;28;20226;-55
2022/01/31 08:36:01;;;;;;;16.67;13.07;;;3.50;99.90;;;;;;5051301;28;20272;-55
2022/01/31 08:38:30;;;;;;;8.53;6.40;;;3.60;99.90;;;;;;5051094;28;20238;-54
2022/01/31 08:41:00;;;;;;;7.63;5.60;;;3.60;99.90;;;;;;5051140;28;20212;-55
2022/01/31 08:43:28;;;;;;;10.70;8.50;;;3.60;99.90;;;;;;5051258;28;20237;-53
2022/01/31 08:45:57;;;;;;;7.97;6.57;;;3.60;99.90;;;;;;5050377;28;20230;-55
2022/01/31 08:48:28;;;;;;;7.40;6.10;;;3.60;99.90;;;;;;5051514;28;20214;-54
2022/01/31 08:50:57;;;;;;;7.30;6.17;;;3.60;99.90;;;;;;5050727;28;20580;-55
2022/01/31 08:53:25;;;;;;;7.93;7.13;;;3.60;99.90;;;;;;5051029;28;20287;-53
2022/01/31 08:55:55;;;;;;;12.07;6.97;;;3.60;99.90;;;;;;5051079;28;20260;-55
2022/01/31 08:58:23;;;;;;;5.10;4.60;;;3.70;99.90;;;;;;5051201;28;20788;-54
2022/01/31 09:00:58;;;;;;;5.30;4.80;;;3.70;99.90;;;;;;5031688;28;20646;-55
2022/01/31 09:03:43;;;;;;;6.70;5.07;;;3.70;99.90;;;;;;5031247;28;20229;-54
2022/01/31 09:06:18;;;;;;;6.53;4.30;;;3.70;99.90;;;;;;5041417;28;20263;-54
2022/01/31 09:08:46;;;;;;;5.17;4.37;;;3.80;99.90;;;;;;5043807;28;20218;-55
2022/01/31 09:11:15;;;;;;;5.97;4.27;;;3.80;99.90;;;;;;5050837;28;20202;-55
2022/01/31 09:13:43;;;;;;;6.30;4.80;;;3.90;99.90;;;;;;5050685;28;20269;-54
2022/01/31 09:16:11;;;;;;;6.17;4.03;;;3.90;99.90;;;;;;5050172;28;20217;-56
2022/01/31 09:18:42;;;;;;;6.23;4.40;;;4.00;99.90;;;;;;5036325;28;20307;-55
2022/01/31 09:21:10;;;;;;;4.73;4.00;;;4.00;99.90;;;;;;5050841;28;20200;-54
2022/01/31 09:23:38;;;;;;;5.87;4.07;;;4.10;99.90;;;;;;5050707;28;20227;-54
2022/01/31 09:26:07;;;;;;;5.43;4.47;;;4.20;99.90;;;;;;5050731;28;20205;-54
2022/01/31 09:28:36;;;;;;;4.40;3.90;;;4.30;99.90;;;;;;5050184;28;20257;-54
2022/01/31 09:31:04;;;;;;;4.90;4.03;;;4.40;99.90;;;;;;5050775;28;20703;-54
2022/01/31 09:33:33;;;;;;;3.97;3.57;;;4.40;99.90;;;;;;5050606;28;20233;-54
2022/01/31 09:36:02;;;;;;;3.57;2.90;;;4.40;99.90;;;;;;5050758;28;20705;-54
2022/01/31 09:38:30;;;;;;;3.57;3.10;;;4.30;99.90;;;;;;5042778;28;20231;-54
2022/01/31 09:40:58;;;;;;;4.53;2.97;;;4.40;99.90;;;;;;5043943;28;20286;-54
2022/01/31 09:43:56;;;;;;;4.50;2.87;;;4.40;99.90;;;;;;5050182;28;20231;-54
2022/01/31 09:49:16;;;;;;;2.80;2.60;;;4.30;99.90;;;;;;5020084;28;20210;-55
2022/01/31 09:51:46;;;;;;;3.97;3.03;;;4.40;99.90;;;;;;5045058;28;20432;-54
2022/01/31 09:54:15;;;;;;;3.23;2.93;;;4.50;99.90;;;;;;5050954;28;20278;-54
2022/01/31 09:56:45;;;;;;;2.73;2.23;;;4.40;99.90;;;;;;5050570;28;20236;-55
2022/01/31 09:59:15;;;;;;;2.60;2.40;;;4.30;99.90;;;;;;5042464;28;20199;-56
2022/01/31 10:01:46;;;;;;;2.63;2.43;;;4.30;99.90;;;;;;5049072;28;20673;-54
2022/01/31 10:04:18;;;;;;;3.07;2.57;;;4.30;99.90;;;;;;5050242;28;20231;-55
2022/01/31 10:06:48;;;;;;;3.00;2.20;;;4.30;99.90;;;;;;5050015;28;20432;-55
2022/01/31 10:09:19;;;;;;;2.83;2.63;;;4.50;99.90;;;;;;5050622;28;20236;-55
2022/01/31 10:11:50;;;;;;;2.17;1.60;;;4.40;99.90;;;;;;5050525;28;20212;-55
2022/01/31 10:17:12;;;;;;;1.80;1.70;;;4.20;99.90;;;;;;5050025;28;20206;-54
2022/01/31 10:19:52;;;;;;;1.97;1.87;;;4.20;99.90;;;;;;5050281;28;20265;-55
2022/01/31 10:22:24;;;;;;;1.63;1.53;;;4.20;99.90;;;;;;5050532;28;20265;-55
2022/01/31 10:24:55;;;;;;;2.60;2.40;;;4.10;99.90;;;;;;5050316;28;20213;-54
2022/01/31 10:27:27;;;;;;;2.43;1.73;;;4.10;99.90;;;;;;5050389;28;20728;-54
2022/01/31 10:29:57;;;;;;;1.73;1.63;;;4.10;99.90;;;;;;5049929;28;20220;-54
2022/01/31 10:32:29;;;;;;;1.90;1.80;;;4.10;99.90;;;;;;5050439;28;20244;-54
2022/01/31 10:34:59;;;;;;;2.07;1.97;;;4.10;99.90;;;;;;5050147;28;20203;-54
2022/01/31 10:37:31;;;;;;;1.40;1.30;;;4.20;99.90;;;;;;5031192;28;20243;-55
2022/01/31 10:45:54;;;;;;;2.03;1.90;;;4.20;99.90;;;;;;5053789;28;20212;-55
2022/01/31 10:54:40;;;;;;;1.60;1.50;;;4.30;99.90;;;;;;5053109;28;20287;-55
2022/01/31 10:57:14;;;;;;;2.00;1.90;;;4.20;99.90;;;;;;5053344;28;20221;-55
2022/01/31 10:59:45;;;;;;;1.80;1.70;;;4.20;99.90;;;;;;5043412;28;20659;-55
2022/01/31 11:02:18;;;;;;;1.67;1.57;;;4.20;99.90;;;;;;5046717;28;20249;-55
2022/01/31 11:04:48;;;;;;;1.93;1.83;;;4.20;99.90;;;;;;5053095;28;20211;-54
2022/01/31 11:07:18;;;;;;;1.60;1.50;;;4.20;99.90;;;;;;5053355;28;20644;-55
2022/01/31 11:09:50;;;;;;;2.17;2.07;;;4.20;99.90;;;;;;5053281;28;20211;-54
2022/01/31 11:12:22;;;;;;;3.93;3.63;;;4.20;99.90;;;;;;5053104;28;20244;-55
2022/01/31 11:14:53;;;;;;;2.47;2.37;;;4.20;99.90;;;;;;5047748;28;20334;-55
2022/01/31 11:17:21;;;;;;;2.20;2.10;;;4.20;99.90;;;;;;5051356;28;20209;-55
2022/01/31 11:19:56;;;;;;;2.37;2.20;;;4.20;99.90;;;;;;5049356;28;20216;-55
2022/01/31 11:22:30;;;;;;;2.07;1.97;;;4.20;99.90;;;;;;5050390;28;20811;-54
2022/01/31 11:25:16;;;;;;;1.70;1.20;;;4.20;99.90;;;;;;5052885;28;20201;-55
2022/01/31 11:27:52;;;;;;;1.70;1.60;;;4.10;99.90;;;;;;5053068;28;20194;-54
2022/01/31 11:30:22;;;;;;;1.33;1.23;;;4.10;99.90;;;;;;5052716;28;20236;-55
2022/01/31 11:32:51;;;;;;;3.23;2.93;;;4.20;99.90;;;;;;5052932;28;20233;-54
2022/01/31 11:35:20;;;;;;;3.23;3.00;;;4.30;99.90;;;;;;5052920;28;20290;-55
2022/01/31 11:37:49;;;;;;;0.80;0.80;;;4.40;99.90;;;;;;5051999;28;20198;-54
2022/01/31 11:40:19;;;;;;;0.73;0.73;;;4.40;99.90;;;;;;5052939;28;20257;-55
2022/01/31 11:42:50;;;;;;;1.17;1.10;;;4.40;99.90;;;;;;5052784;28;20255;-55
2022/01/31 11:45:20;;;;;;;1.90;1.80;;;4.40;99.90;;;;;;5042287;28;20637;-54
2022/01/31 11:47:52;;;;;;;0.80;0.80;;;4.40;99.90;;;;;;5042333;28;20229;-55
2022/01/31 11:50:23;;;;;;;0.80;0.80;;;4.40;99.90;;;;;;5052220;28;20227;-55
2022/01/31 11:52:54;;;;;;;7.57;4.60;;;4.40;99.90;;;;;;5050977;28;20278;-54
2022/01/31 11:55:35;;;;;;;2.27;2.07;;;4.50;99.90;;;;;;5070974;28;20268;-55
2022/01/31 11:58:06;;;;;;;12.20;7.77;;;4.50;99.90;;;;;;5071929;28;20825;-54
2022/01/31 12:00:38;;;;;;;6.53;4.60;;;4.50;99.90;;;;;;5054966;28;20236;-54
2022/01/31 12:03:07;;;;;;;45.13;29.47;;;4.50;99.90;;;;;;5032228;28;20263;-55
2022/01/31 12:05:37;;;;;;;10.73;9.63;;;4.50;99.90;;;;;;5031808;28;20303;-55
2022/01/31 12:08:09;;;;;;;2.30;2.20;;;4.60;99.90;;;;;;5043293;28;20223;-55
2022/01/31 12:10:42;;;;;;;4.10;3.73;;;4.60;99.90;;;;;;5051669;28;20210;-56
2022/01/31 12:13:35;;;;;;;3.20;3.00;;;4.60;99.90;;;;;;5033764;28;20299;-56
2022/01/31 12:16:13;;;;;;;2.60;2.40;;;4.60;99.90;;;;;;5030889;28;20941;-55
2022/01/31 12:22:02;;;;;;;3.70;3.40;;;4.60;99.90;;;;;;5041297;28;20701;-55
2022/01/31 12:24:33;;;;;;;1.57;1.50;;;4.70;99.90;;;;;;5051617;28;20210;-55
2022/01/31 12:27:08;;;;;;;2.00;1.90;;;4.80;99.90;;;;;;5051155;28;20225;-54
2022/01/31 12:29:40;;;;;;;2.03;1.93;;;5.00;99.90;;;;;;5048497;28;20220;-54
2022/01/31 12:32:17;;;;;;;2.47;2.30;;;5.00;99.90;;;;;;5031276;28;20225;-55
2022/01/31 12:34:54;;;;;;;3.93;3.60;;;5.00;99.90;;;;;;5033712;28;20273;-55
2022/01/31 12:37:31;;;;;;;2.33;2.13;;;5.00;99.90;;;;;;5051180;28;20212;-54
2022/01/31 12:40:07;;;;;;;1.60;1.50;;;5.00;99.90;;;;;;5051401;28;20246;-55
2022/01/31 12:43:11;;;;;;;2.90;2.70;;;5.10;99.90;;;;;;5051042;28;20224;-55
2022/01/31 12:46:17;;;;;;;2.77;2.57;;;5.10;99.90;;;;;;5042040;28;20641;-55
2022/01/31 12:49:10;;;;;;;2.20;2.10;;;5.20;99.90;;;;;;5049576;28;20209;-55
2022/01/31 12:51:57;;;;;;;3.27;3.07;;;5.20;99.90;;;;;;5051086;28;20208;-55
2022/01/31 12:54:26;;;;;;;1.83;1.73;;;5.40;99.90;;;;;;5050132;28;20319;-55
2022/01/31 12:56:55;;;;;;;2.00;1.80;;;5.50;99.90;;;;;;5050596;28;20213;-55
2022/01/31 12:59:24;;;;;;;1.60;1.40;;;5.50;99.90;;;;;;5043748;28;20232;-55
2022/01/31 13:01:52;;;;;;;2.97;2.77;;;5.50;99.90;;;;;;5049501;28;20229;-55
2022/01/31 13:04:23;;;;;;;4.33;3.93;;;5.50;99.90;;;;;;5039777;28;20234;-55
2022/01/31 13:06:52;;;;;;;1.30;1.20;;;5.50;99.90;;;;;;5030776;28;20211;-55
2022/01/31 13:09:23;;;;;;;2.07;1.40;;;5.50;99.90;;;;;;5044031;28;20237;-56
2022/01/31 13:11:55;;;;;;;0.93;0.93;;;5.50;99.90;;;;;;5050422;28;20216;-55
2022/01/31 13:14:26;;;;;;;1.60;1.20;;;5.50;99.90;;;;;;5050144;28;20276;-55
2022/01/31 13:17:16;;;;;;;0.80;0.80;;;5.50;99.90;;;;;;5030735;28;20198;-55
2022/01/31 13:19:47;;;;;;;1.60;1.50;;;5.50;99.90;;;;;;5030221;28;20191;-55
2022/01/31 13:22:24;;;;;;;1.60;1.00;;;5.50;99.90;;;;;;5047149;28;20235;-55
2022/01/31 13:24:55;;;;;;;2.07;1.70;;;5.50;99.90;;;;;;5049316;28;20247;-55
2022/01/31 13:27:30;;;;;;;1.57;1.50;;;5.50;99.90;;;;;;5050109;28;20206;-55
2022/01/31 13:30:13;;;;;;;2.60;2.40;;;5.50;99.90;;;;;;5047234;28;20229;-56